New Boston, MO (63557)

3:51 PM CDT on May 05, 2015 (GMT -0500)
North Central Missouri | | Change Station
CLOSE
Current Station
Personal Weather Station
Location: Browning, MO
Elevation: 810 ft
Nearby Weather Stations

Elev 810 ft 40.04 °N, 93.16 °W | Updated 4 seconds ago

Partly Cloudy
Partly Cloudy
78.9 °F
Feels Like 80 °F
N
3.0
Wind Variable Wind from SW
Gusts 8.0 mph

Today
High -- | Low -- °F
--% Chance of Precip.
Yesterday
High -- | Low -- °F
Precip. -- in
6:07 AM 8:09 PM
Full, 97% visible
Pressure 30.12 in
Visibility 10.0 miles
Clouds Few 8000 ft
Scattered Clouds 10000 ft
Heat Index 80 °F
Dew Point 61 °F
Humidity 55%
Rainfall 0.00 in
Snow Depth Not available.
UV 7 out of 12
Pollen 8.50 out of 12
Air Quality Not available.
Flu Activity Sporadic
METAR KIRK 051955Z AUTO 20010KT 10SM FEW080 SCT100 26/16 A3012 RMK AO2 SLP197 T02560156

More Conditions Fewer Conditions

Pressure 30.12 in
Visibility 10.0 miles
Clouds Few 8000 ft
Scattered Clouds 10000 ft
Heat Index 80 °F
Dew Point 61 °F
Humidity 55%
Rainfall 0.00 in
Snow Depth Not available.
UV 7 out of 12
Pollen 8.50 out of 12
Air Quality Not available.
Flu Activity Sporadic
METAR KIRK 051955Z AUTO 20010KT 10SM FEW080 SCT100 26/16 A3012 RMK AO2 SLP197 T02560156

More Conditions Fewer Conditions

10-Day Weather Forecast

Almanac

Astronomy

May. 05, 2015 Rise Set
Actual Time
Civil Twilight
Nautical Twilight
Astronomical Twilight
Moon
Length of Visible Light
Length of Day
Tomorrow will be .
, % of the Moon is Illuminated

Today's Extremes

State Highs State Lows

Community

WunderPhotos

Upload Photos

1,818,975 photos uploaded!

WunderBlogs® & News

Nearby

Air Quality

  Air Quality AQ Index Pollutant
Not available.

Snow Depth

Station Depth Elevation

Earthquake Activity

City Distance Mag. Time & Date
Minimum magnitude displayed is 2.5.

Coastal Water Temperatures

Place Temperature

Stations

Nearby Weather Stations

Station Location Temp. Windchill Dew Point Humidity Wind Precip. Elev Updated Type